createdAt,value
2022-11-20T00:00:02.459Z,3.20
2022-11-20T00:02:36.324Z,1.03
2022-11-20T00:05:06.354Z,3.33
2022-11-20T00:07:36.119Z,2.80
2022-11-20T00:10:05.783Z,3.40
2022-11-20T00:12:35.207Z,1.47
2022-11-20T00:15:04.808Z,2.70
2022-11-20T00:17:36.058Z,3.97
2022-11-20T00:20:06.815Z,2.57
2022-11-20T00:22:36.693Z,2.07
2022-11-20T00:25:06.278Z,2.20
2022-11-20T00:27:35.743Z,2.77
2022-11-20T00:30:05.404Z,3.13
2022-11-20T00:32:35.351Z,3.07
2022-11-20T00:35:05.302Z,4.27
2022-11-20T00:37:35.016Z,3.53
2022-11-20T00:40:04.441Z,2.37
2022-11-20T00:42:35.044Z,2.83
2022-11-20T00:45:05.001Z,3.03
2022-11-20T00:47:35.004Z,5.63
2022-11-20T00:50:04.722Z,2.40
2022-11-20T00:52:36.794Z,4.50
2022-11-20T00:55:06.428Z,3.10
2022-11-20T00:57:49.153Z,3.27
2022-11-20T01:00:18.734Z,7.60
2022-11-20T01:02:49.192Z,6.13
2022-11-20T01:05:18.655Z,4.07
2022-11-20T01:07:48.541Z,3.03
2022-11-20T01:10:19.480Z,6.13
2022-11-20T01:13:09.179Z,2.47
2022-11-20T01:15:39.122Z,5.33
2022-11-20T01:18:08.808Z,5.90
2022-11-20T01:20:38.893Z,3.73
2022-11-20T01:23:08.815Z,6.97
2022-11-20T01:25:38.647Z,5.47
2022-11-20T01:28:08.468Z,6.13
2022-11-20T01:30:38.451Z,6.40
2022-11-20T01:33:07.988Z,5.50
2022-11-20T01:35:37.818Z,7.00
2022-11-20T01:38:07.379Z,5.87
2022-11-20T01:40:37.239Z,6.00
2022-11-20T01:43:25.330Z,5.30
2022-11-20T01:46:01.410Z,5.53
2022-11-20T01:48:41.961Z,2.93
2022-11-20T01:51:25.548Z,5.90
2022-11-20T01:53:55.752Z,4.13
2022-11-20T01:56:25.659Z,5.83
2022-11-20T01:58:57.250Z,2.63
2022-11-20T02:01:27.245Z,5.93
2022-11-20T02:03:56.806Z,6.20
2022-11-20T02:06:26.987Z,3.23
2022-11-20T02:08:56.863Z,3.77
2022-11-20T02:11:26.407Z,4.83
2022-11-20T02:13:57.927Z,4.10
2022-11-20T02:16:28.385Z,4.83
2022-11-20T02:18:58.179Z,2.23
2022-11-20T02:21:30.756Z,2.73
2022-11-20T02:24:26.868Z,4.77
2022-11-20T02:26:57.616Z,4.90
2022-11-20T02:29:48.547Z,3.90
2022-11-20T02:32:26.374Z,5.27
2022-11-20T02:34:56.354Z,4.68
2022-11-20T02:37:26.528Z,3.53
2022-11-20T02:39:56.484Z,3.13
2022-11-20T02:42:25.957Z,3.70
2022-11-20T02:44:55.795Z,4.83
2022-11-20T02:47:25.758Z,7.77
2022-11-20T02:49:55.215Z,5.17
2022-11-20T02:52:25.049Z,5.30
2022-11-20T02:54:55.069Z,0.83
2022-11-20T02:57:24.600Z,1.70
2022-11-20T02:59:54.059Z,4.87
2022-11-20T03:02:23.962Z,5.20
2022-11-20T03:04:54.005Z,4.47
2022-11-20T03:07:24.107Z,5.20
2022-11-20T03:09:53.683Z,7.20
2022-11-20T03:12:23.572Z,6.73
2022-11-20T03:14:53.498Z,6.17
2022-11-20T03:17:23.462Z,9.17
2022-11-20T03:19:53.424Z,9.67
2022-11-20T03:22:23.001Z,8.20
2022-11-20T03:24:52.842Z,10.17
2022-11-20T03:27:22.327Z,7.67
2022-11-20T03:29:52.192Z,7.63
2022-11-20T03:32:22.128Z,7.63
2022-11-20T03:34:52.164Z,7.23
2022-11-20T03:37:21.696Z,9.00
2022-11-20T03:39:51.545Z,9.07
2022-11-20T03:42:39.316Z,8.37
2022-11-20T03:45:09.129Z,9.80
2022-11-20T03:47:38.597Z,7.07
2022-11-20T03:50:08.238Z,12.73
2022-11-20T03:52:37.772Z,6.93
2022-11-20T03:55:09.583Z,9.83
2022-11-20T03:57:39.519Z,9.23
2022-11-20T04:00:09.278Z,12.07
2022-11-20T04:02:39.205Z,12.23
2022-11-20T04:05:09.530Z,10.17
2022-11-20T04:07:39.579Z,8.50
2022-11-20T04:10:09.244Z,7.97
2022-11-20T04:12:38.648Z,9.10
2022-11-20T04:15:08.668Z,8.85
2022-11-20T04:17:38.710Z,9.50
2022-11-20T04:20:09.684Z,7.97
2022-11-20T04:22:39.978Z,9.73
2022-11-20T04:25:10.309Z,9.68
2022-11-20T04:27:40.499Z,9.63
2022-11-20T04:30:10.285Z,8.52
2022-11-20T04:32:40.151Z,8.48
2022-11-20T04:35:09.800Z,9.90
2022-11-20T04:37:39.219Z,8.55
2022-11-20T04:40:09.214Z,8.77
2022-11-20T04:42:39.229Z,8.88
2022-11-20T04:45:08.947Z,7.72
2022-11-20T04:47:38.830Z,8.75
2022-11-20T04:50:09.113Z,8.13
2022-11-20T04:52:39.109Z,9.90
2022-11-20T04:55:09.387Z,10.63
2022-11-20T04:57:39.292Z,10.48
2022-11-20T05:00:09.071Z,12.27
2022-11-20T05:02:39.078Z,13.45
2022-11-20T05:05:09.094Z,10.98
2022-11-20T05:07:39.139Z,13.25
2022-11-20T05:10:09.567Z,11.93
2022-11-20T05:12:39.168Z,12.63
2022-11-20T05:15:09.373Z,12.00
2022-11-20T05:17:39.331Z,11.52
2022-11-20T05:20:09.658Z,12.77
2022-11-20T05:22:39.590Z,11.32
2022-11-20T05:25:09.716Z,12.35
2022-11-20T05:27:39.195Z,12.00
2022-11-20T05:30:08.819Z,13.13
2022-11-20T05:32:38.695Z,13.27
2022-11-20T05:35:08.866Z,12.05
2022-11-20T05:37:38.353Z,12.27
2022-11-20T05:40:08.141Z,13.48
2022-11-20T05:42:37.607Z,12.82
2022-11-20T05:45:08.066Z,16.08
2022-11-20T05:47:37.552Z,13.68
2022-11-20T05:50:07.620Z,14.00
2022-11-20T05:52:37.686Z,13.65
2022-11-20T05:55:07.706Z,13.25
2022-11-20T05:57:37.679Z,13.60
2022-11-20T06:00:07.947Z,13.32
2022-11-20T06:02:38.468Z,12.82
2022-11-20T06:05:08.338Z,12.02
2022-11-20T06:07:37.771Z,11.65
2022-11-20T06:10:07.774Z,12.85
2022-11-20T06:12:37.262Z,13.98
2022-11-20T06:15:07.902Z,12.43
2022-11-20T06:17:37.273Z,12.75
2022-11-20T06:20:06.850Z,12.10
2022-11-20T06:22:36.247Z,12.13
2022-11-20T06:25:05.814Z,12.43
2022-11-20T06:27:35.176Z,12.65
2022-11-20T06:30:05.187Z,12.63
2022-11-20T06:32:35.461Z,14.48
2022-11-20T06:35:05.487Z,13.38
2022-11-20T06:37:34.970Z,12.45
2022-11-20T06:40:04.841Z,13.85
2022-11-20T06:42:35.071Z,13.25
2022-11-20T06:45:05.001Z,13.27
2022-11-20T06:47:35.447Z,11.68
2022-11-20T06:50:05.729Z,11.60
2022-11-20T06:52:39.526Z,12.13
2022-11-20T06:55:13.442Z,12.05
2022-11-20T06:57:43.082Z,12.00
2022-11-20T07:00:12.831Z,10.85
2022-11-20T07:02:42.731Z,12.65
2022-11-20T07:05:12.685Z,10.50
2022-11-20T07:07:43.013Z,11.90
2022-11-20T07:10:12.891Z,10.82
2022-11-20T07:12:43.164Z,10.48
2022-11-20T07:15:12.812Z,11.77
2022-11-20T07:17:42.206Z,11.35
2022-11-20T07:20:11.911Z,11.80
2022-11-20T07:22:41.389Z,10.73
2022-11-20T07:25:11.417Z,12.27
2022-11-20T07:27:41.476Z,13.40
2022-11-20T07:30:15.826Z,13.93
2022-11-20T07:32:45.807Z,14.32
2022-11-20T07:35:15.822Z,13.52
2022-11-20T07:37:47.329Z,13.40
2022-11-20T07:40:17.442Z,14.43
2022-11-20T07:42:52.097Z,15.52
2022-11-20T07:45:22.368Z,15.07
2022-11-20T07:47:51.984Z,14.80
2022-11-20T07:50:21.548Z,15.25
2022-11-20T07:52:51.408Z,14.73
2022-11-20T07:55:21.249Z,14.43
2022-11-20T07:57:57.705Z,13.50
2022-11-20T08:00:28.442Z,14.07
2022-11-20T08:02:58.870Z,14.80
2022-11-20T08:05:28.353Z,14.18
2022-11-20T08:07:58.580Z,13.27
2022-11-20T08:10:28.666Z,14.38
2022-11-20T08:13:16.537Z,12.32
2022-11-20T08:15:50.080Z,11.98
2022-11-20T08:18:35.421Z,11.57
2022-11-20T08:21:06.285Z,10.63
2022-11-20T08:23:35.842Z,11.70
2022-11-20T08:26:05.257Z,12.02
2022-11-20T08:28:36.983Z,11.45
2022-11-20T08:31:06.980Z,12.95
2022-11-20T08:33:36.651Z,13.25
2022-11-20T08:36:06.675Z,11.30
2022-11-20T08:38:36.241Z,10.27
2022-11-20T08:41:25.005Z,11.18
2022-11-20T08:43:55.364Z,9.95
2022-11-20T08:46:25.607Z,9.15
2022-11-20T08:48:55.541Z,10.02
2022-11-20T08:51:25.902Z,7.78
2022-11-20T08:53:56.111Z,6.97
2022-11-20T08:56:26.116Z,7.00
2022-11-20T08:59:18.370Z,7.13
2022-11-20T09:01:46.815Z,7.65
2022-11-20T09:04:17.605Z,7.32
2022-11-20T09:06:47.702Z,8.63
2022-11-20T09:09:17.647Z,8.18
2022-11-20T09:11:47.612Z,9.35
2022-11-20T09:14:17.165Z,10.68
2022-11-20T09:16:49.060Z,10.70
2022-11-20T09:19:35.778Z,11.43
2022-11-20T09:22:07.074Z,12.82
2022-11-20T09:24:37.495Z,12.23
2022-11-20T09:27:08.013Z,11.45
2022-11-20T09:29:37.643Z,10.68
2022-11-20T09:32:07.851Z,12.43
2022-11-20T09:34:37.947Z,13.55
2022-11-20T09:37:08.004Z,13.88
2022-11-20T09:39:40.441Z,13.95
2022-11-20T09:42:16.912Z,14.43
2022-11-20T09:44:55.392Z,15.20
2022-11-20T09:47:24.947Z,15.48
2022-11-20T09:50:05.790Z,15.18
2022-11-20T09:52:40.969Z,16.48
2022-11-20T09:55:13.829Z,18.98
2022-11-20T09:57:44.238Z,15.10
2022-11-20T10:00:15.252Z,16.60
2022-11-20T10:03:05.979Z,22.17
2022-11-20T10:05:47.494Z,22.83
2022-11-20T10:08:17.899Z,12.65
2022-11-20T10:10:52.441Z,16.92
2022-11-20T10:13:26.845Z,13.38
2022-11-20T10:16:01.014Z,14.02
2022-11-20T10:18:39.286Z,12.83
2022-11-20T10:21:37.848Z,12.13
2022-11-20T10:24:07.416Z,9.13
2022-11-20T10:26:45.958Z,12.03
2022-11-20T10:29:19.458Z,12.70
2022-11-20T10:31:51.419Z,10.23
2022-11-20T10:34:23.075Z,12.33
2022-11-20T10:36:58.371Z,11.70
2022-11-20T10:39:27.930Z,12.43
2022-11-20T10:41:57.453Z,13.77
2022-11-20T10:44:53.732Z,13.50
2022-11-20T10:47:27.957Z,14.67
2022-11-20T10:49:58.144Z,12.70
2022-11-20T10:52:41.329Z,11.27
2022-11-20T10:55:30.376Z,14.23
2022-11-20T10:58:13.505Z,14.17
2022-11-20T11:00:43.926Z,10.90
2022-11-20T11:03:32.390Z,9.33
2022-11-20T11:06:04.941Z,10.97
2022-11-20T11:08:36.262Z,9.57
2022-11-20T11:11:10.838Z,9.90
2022-11-20T11:13:40.347Z,7.53
2022-11-20T11:16:19.617Z,9.17
2022-11-20T11:18:49.885Z,7.67
2022-11-20T11:21:28.414Z,8.83
2022-11-20T11:24:19.858Z,9.47
2022-11-20T11:26:59.691Z,10.50
2022-11-20T11:29:31.181Z,13.63
2022-11-20T11:32:10.228Z,14.10
2022-11-20T11:34:40.167Z,12.57
2022-11-20T11:37:18.360Z,15.60
2022-11-20T11:39:55.036Z,13.93
2022-11-20T11:42:34.098Z,12.27
2022-11-20T11:45:09.627Z,11.80
2022-11-20T11:47:39.880Z,17.58
2022-11-20T11:50:12.444Z,14.90
2022-11-20T11:52:45.100Z,16.53
2022-11-20T11:55:20.206Z,13.63
2022-11-20T11:57:51.344Z,25.60
2022-11-20T12:00:24.100Z,24.13
2022-11-20T12:03:16.461Z,24.50
2022-11-20T12:05:50.649Z,25.97
2022-11-20T12:08:38.956Z,28.60
2022-11-20T12:11:29.938Z,22.63
2022-11-20T12:13:59.922Z,16.57
2022-11-20T12:16:29.951Z,17.63
2022-11-20T12:18:59.923Z,14.00
2022-11-20T12:21:47.868Z,12.20
2022-11-20T12:24:17.854Z,13.50
2022-11-20T12:27:09.113Z,12.87
2022-11-20T12:29:48.326Z,14.50
2022-11-20T12:32:18.304Z,13.53
2022-11-20T12:34:51.201Z,20.37
2022-11-20T12:37:29.651Z,18.67
2022-11-20T12:39:59.365Z,16.40
2022-11-20T12:42:57.767Z,13.53
2022-11-20T12:45:45.592Z,13.87
2022-11-20T12:48:18.098Z,18.60
2022-11-20T12:51:14.646Z,22.43
2022-11-20T12:54:19.010Z,20.07
2022-11-20T12:56:57.274Z,22.03
2022-11-20T12:59:37.202Z,20.50
2022-11-20T13:02:19.718Z,21.53
2022-11-20T13:05:07.747Z,21.30
2022-11-20T13:07:38.980Z,20.40
2022-11-20T13:10:11.739Z,19.43
2022-11-20T13:12:44.306Z,19.73
2022-11-20T13:15:32.236Z,19.60
2022-11-20T13:18:03.017Z,15.10
2022-11-20T13:20:33.188Z,13.73
2022-11-20T13:23:02.837Z,13.90
2022-11-20T13:25:39.306Z,9.40
2022-11-20T13:28:12.500Z,14.23
2022-11-20T13:30:52.658Z,15.27
2022-11-20T13:33:31.441Z,11.97
2022-11-20T13:36:06.013Z,12.90
2022-11-20T13:39:05.439Z,11.67
2022-11-20T13:41:39.558Z,12.47
2022-11-20T13:44:12.968Z,13.40
2022-11-20T13:46:45.641Z,9.47
2022-11-20T13:49:32.838Z,17.70
2022-11-20T13:52:20.729Z,12.53
2022-11-20T13:54:53.952Z,14.43
2022-11-20T13:57:38.403Z,12.90
2022-11-20T14:00:28.380Z,13.70
2022-11-20T14:03:00.916Z,15.37
2022-11-20T14:05:37.575Z,13.43
2022-11-20T14:08:07.657Z,17.03
2022-11-20T14:10:41.301Z,12.77
2022-11-20T14:13:22.571Z,16.23
2022-11-20T14:15:51.970Z,15.57
2022-11-20T14:18:25.040Z,13.67
2022-11-20T14:20:54.987Z,12.90
2022-11-20T14:23:30.849Z,16.80
2022-11-20T14:26:00.510Z,17.30
2022-11-20T14:28:31.526Z,18.43
2022-11-20T14:31:01.096Z,18.93
2022-11-20T14:33:31.601Z,13.90
2022-11-20T14:36:01.613Z,19.03
2022-11-20T14:38:31.885Z,24.80
2022-11-20T14:41:10.880Z,34.60
2022-11-20T14:43:41.554Z,35.90
2022-11-20T14:46:11.452Z,13.67
2022-11-20T14:48:51.002Z,20.53
2022-11-20T14:51:48.729Z,20.13
2022-11-20T14:54:19.604Z,15.87
2022-11-20T14:57:05.042Z,16.13
2022-11-20T14:59:35.951Z,17.88
2022-11-20T15:02:13.436Z,20.13
2022-11-20T15:04:49.892Z,17.63
2022-11-20T15:07:35.942Z,22.90
2022-11-20T15:10:09.822Z,21.97
2022-11-20T15:13:00.165Z,21.67
2022-11-20T15:15:33.604Z,24.40
2022-11-20T15:18:04.273Z,24.50
2022-11-20T15:20:35.151Z,20.33
2022-11-20T15:23:05.086Z,15.87
2022-11-20T15:25:34.671Z,23.90
2022-11-20T15:28:04.539Z,18.87
2022-11-20T15:30:34.495Z,17.40
2022-11-20T15:33:04.381Z,20.87
2022-11-20T15:35:34.341Z,20.80
2022-11-20T15:38:03.908Z,20.27
2022-11-20T15:40:34.031Z,16.77
2022-11-20T15:43:12.853Z,18.13
2022-11-20T15:45:47.822Z,18.77
2022-11-20T15:48:20.322Z,19.87
2022-11-20T15:50:49.826Z,17.33
2022-11-20T15:53:19.806Z,17.27
2022-11-20T15:55:49.938Z,17.00
2022-11-20T15:58:19.453Z,21.90
2022-11-20T16:00:49.463Z,18.67
2022-11-20T16:03:19.043Z,19.43
2022-11-20T16:05:48.655Z,21.80
2022-11-20T16:08:18.796Z,23.97
2022-11-20T16:10:49.129Z,26.37
2022-11-20T16:13:37.822Z,19.17
2022-11-20T16:16:08.646Z,18.80
2022-11-20T16:18:40.661Z,17.77
2022-11-20T16:21:15.581Z,22.60
2022-11-20T16:23:45.914Z,17.95
2022-11-20T16:26:15.941Z,17.47
2022-11-20T16:28:45.782Z,9.23
2022-11-20T16:31:16.136Z,8.70
2022-11-20T16:33:46.269Z,11.50
2022-11-20T16:36:17.044Z,9.90
2022-11-20T16:38:46.907Z,10.67
2022-11-20T16:41:16.397Z,10.63
2022-11-20T16:44:02.210Z,7.50
2022-11-20T16:46:32.177Z,8.23
2022-11-20T16:49:08.554Z,10.90
2022-11-20T16:51:38.211Z,8.60
2022-11-20T16:54:08.250Z,12.07
2022-11-20T16:56:38.253Z,8.40
2022-11-20T16:59:08.727Z,7.73
2022-11-20T17:01:41.259Z,6.90
2022-11-20T17:04:10.910Z,8.83
2022-11-20T17:06:44.956Z,8.27
2022-11-20T17:09:14.771Z,9.13
2022-11-20T17:11:44.604Z,9.27
2022-11-20T17:14:14.466Z,12.70
2022-11-20T17:16:44.052Z,12.80
2022-11-20T17:19:13.908Z,11.57
2022-11-20T17:21:43.725Z,12.37
2022-11-20T17:24:14.026Z,17.37
2022-11-20T17:26:43.838Z,23.33
2022-11-20T17:29:14.680Z,15.47
2022-11-20T17:31:44.735Z,18.80
2022-11-20T17:34:14.861Z,25.97
2022-11-20T17:36:47.765Z,13.87
2022-11-20T17:39:17.603Z,8.27
2022-11-20T17:42:07.082Z,12.17
2022-11-20T17:44:36.649Z,9.47
2022-11-20T17:47:06.892Z,6.47
2022-11-20T17:49:36.835Z,5.57
2022-11-20T17:52:06.950Z,10.13
2022-11-20T17:54:36.901Z,7.63
2022-11-20T17:57:35.403Z,6.63
2022-11-20T18:00:05.028Z,6.17
2022-11-20T18:02:34.503Z,3.50
2022-11-20T18:05:04.409Z,3.70
2022-11-20T18:07:38.652Z,7.03
2022-11-20T18:10:11.570Z,5.33
2022-11-20T18:12:41.049Z,6.63
2022-11-20T18:15:10.942Z,2.77
2022-11-20T18:17:41.130Z,4.57
2022-11-20T18:20:28.583Z,4.37
2022-11-20T18:22:59.343Z,6.73
2022-11-20T18:25:29.271Z,5.23
2022-11-20T18:27:58.718Z,4.30
2022-11-20T18:30:28.596Z,8.13
2022-11-20T18:32:58.563Z,6.93
2022-11-20T18:35:28.974Z,6.03
2022-11-20T18:37:58.968Z,6.00
2022-11-20T18:40:28.869Z,5.70
2022-11-20T18:43:16.576Z,5.70
2022-11-20T18:45:46.510Z,4.63
2022-11-20T18:48:16.541Z,8.10
2022-11-20T18:50:46.088Z,7.33
2022-11-20T18:53:15.949Z,8.87
2022-11-20T18:55:45.862Z,8.77
2022-11-20T18:58:16.239Z,8.83
2022-11-20T19:00:46.248Z,11.83
2022-11-20T19:03:15.792Z,10.17
2022-11-20T19:05:45.765Z,14.67
2022-11-20T19:08:15.718Z,10.47
2022-11-20T19:10:45.261Z,11.77
2022-11-20T19:13:15.110Z,13.80
2022-11-20T19:15:44.671Z,12.40
2022-11-20T19:18:14.091Z,13.87
2022-11-20T19:20:44.245Z,13.70
2022-11-20T19:23:14.551Z,12.27
2022-11-20T19:25:44.481Z,9.37
2022-11-20T19:28:13.872Z,7.93
2022-11-20T19:30:43.817Z,8.53
2022-11-20T19:33:13.702Z,10.07
2022-11-20T19:35:43.720Z,9.43
2022-11-20T19:38:14.074Z,8.23
2022-11-20T19:40:43.694Z,12.93
2022-11-20T19:43:13.132Z,10.17
2022-11-20T19:45:43.009Z,8.37
2022-11-20T19:48:13.068Z,12.27
2022-11-20T19:50:43.085Z,16.60
2022-11-20T19:53:13.037Z,13.57
2022-11-20T19:55:43.914Z,12.47
2022-11-20T19:58:13.776Z,8.87
2022-11-20T20:00:43.449Z,8.10
2022-11-20T20:03:12.883Z,3.17
2022-11-20T20:05:42.399Z,3.37
2022-11-20T20:08:16.474Z,6.20
2022-11-20T20:10:47.518Z,5.00
2022-11-20T20:13:17.493Z,6.80
2022-11-20T20:15:47.021Z,4.10
2022-11-20T20:18:16.457Z,4.70
2022-11-20T20:20:45.867Z,6.40
2022-11-20T20:23:15.796Z,5.07
2022-11-20T20:25:45.410Z,6.87
2022-11-20T20:28:14.809Z,5.23
2022-11-20T20:30:44.662Z,5.20
2022-11-20T20:33:14.588Z,5.20
2022-11-20T20:35:44.860Z,5.50
2022-11-20T20:38:14.440Z,6.70
2022-11-20T20:40:53.173Z,5.17
2022-11-20T20:43:23.061Z,5.87
2022-11-20T20:45:52.664Z,7.43
2022-11-20T20:48:23.347Z,6.50
2022-11-20T20:50:58.531Z,7.00
2022-11-20T20:53:28.381Z,7.93
2022-11-20T20:56:02.400Z,9.83
2022-11-20T20:58:32.018Z,8.90
2022-11-20T21:01:07.997Z,4.80
2022-11-20T21:06:06.652Z,6.87
2022-11-20T21:08:40.112Z,10.47
2022-11-20T21:11:11.739Z,9.93
2022-11-20T21:13:41.866Z,8.00
2022-11-20T21:16:12.312Z,7.80
2022-11-20T21:18:42.237Z,9.27
2022-11-20T21:21:32.130Z,9.17
2022-11-20T21:24:02.211Z,9.70
2022-11-20T21:26:32.204Z,9.03
2022-11-20T21:29:01.702Z,4.67
2022-11-20T21:31:32.476Z,9.50
2022-11-20T21:34:03.006Z,5.30
2022-11-20T21:36:33.253Z,6.87
2022-11-20T21:39:03.004Z,5.13
2022-11-20T21:41:32.920Z,3.57
2022-11-20T21:46:55.174Z,5.73
2022-11-20T21:49:25.444Z,2.87
2022-11-20T21:51:55.702Z,8.90
2022-11-20T21:54:25.974Z,7.43
2022-11-20T21:56:56.102Z,7.27
2022-11-20T21:59:26.478Z,7.30
2022-11-20T22:01:56.439Z,6.57
2022-11-20T22:04:26.723Z,5.77
2022-11-20T22:06:56.356Z,8.40
2022-11-20T22:09:25.826Z,8.20
2022-11-20T22:11:55.777Z,5.23
2022-11-20T22:14:26.622Z,4.53
2022-11-20T22:16:56.292Z,7.20
2022-11-20T22:19:25.693Z,4.53
2022-11-20T22:21:55.524Z,6.97
2022-11-20T22:24:25.744Z,6.53
2022-11-20T22:26:55.801Z,4.90
2022-11-20T22:29:25.317Z,5.10
2022-11-20T22:31:54.761Z,6.63
2022-11-20T22:34:24.579Z,6.40
2022-11-20T22:36:54.732Z,6.00
2022-11-20T22:39:24.295Z,6.23
2022-11-20T22:41:53.666Z,9.03
2022-11-20T22:44:23.782Z,4.70
2022-11-20T22:46:53.974Z,4.93
2022-11-20T22:49:23.891Z,8.87
2022-11-20T22:51:53.268Z,6.23
2022-11-20T22:54:22.936Z,8.37
2022-11-20T22:56:52.670Z,7.63
2022-11-20T22:59:22.577Z,6.13
2022-11-20T23:01:52.509Z,7.37
2022-11-20T23:04:22.754Z,4.27
2022-11-20T23:06:52.960Z,6.60
2022-11-20T23:09:22.498Z,7.73
2022-11-20T23:11:52.383Z,8.73
2022-11-20T23:14:27.414Z,7.07
2022-11-20T23:16:58.487Z,5.35
2022-11-20T23:19:28.419Z,5.53
2022-11-20T23:21:57.896Z,8.40
2022-11-20T23:24:27.948Z,7.70
2022-11-20T23:26:58.092Z,7.73
2022-11-20T23:29:28.182Z,6.83
2022-11-20T23:31:57.614Z,7.07
2022-11-20T23:34:27.626Z,5.27
2022-11-20T23:36:57.765Z,6.57
2022-11-20T23:39:27.274Z,7.57
2022-11-20T23:41:57.159Z,5.43
2022-11-20T23:44:26.915Z,6.10
2022-11-20T23:46:57.040Z,8.93
2022-11-20T23:49:26.522Z,9.13
2022-11-20T23:51:56.385Z,6.80
2022-11-20T23:54:26.712Z,8.37
2022-11-20T23:56:56.448Z,6.47
2022-11-20T23:59:27.396Z,8.00
